sensor_id;sensor_type;location;lat;lon;timestamp;pressure;altitude;pressure_sealevel;temperature;humidity
34124;BME280;13153;52.316;21.166;2023-01-26T00:01:16;101322.69;;;5.93;56.95
34124;BME280;13153;52.316;21.166;2023-01-26T00:03:42;101320.25;;;5.96;56.52
34124;BME280;13153;52.316;21.166;2023-01-26T00:06:12;101313.22;;;5.95;57.00
34124;BME280;13153;52.316;21.166;2023-01-26T00:08:41;101311.25;;;5.91;56.66
34124;BME280;13153;52.316;21.166;2023-01-26T00:11:11;101311.03;;;5.88;56.60
34124;BME280;13153;52.316;21.166;2023-01-26T00:13:37;101307.66;;;5.89;56.95
34124;BME280;13153;52.316;21.166;2023-01-26T00:16:07;101305.94;;;5.89;57.17
34124;BME280;13153;52.316;21.166;2023-01-26T00:18:37;101312.06;;;5.90;56.90
34124;BME280;13153;52.316;21.166;2023-01-26T00:21:05;101299.81;;;5.89;56.50
34124;BME280;13153;52.316;21.166;2023-01-26T00:23:33;101307.50;;;5.87;56.82
34124;BME280;13153;52.316;21.166;2023-01-26T00:26:00;101293.47;;;5.85;56.81
34124;BME280;13153;52.316;21.166;2023-01-26T00:28:28;101297.78;;;5.85;57.31
34124;BME280;13153;52.316;21.166;2023-01-26T00:31:02;101307.25;;;5.83;57.06
34124;BME280;13153;52.316;21.166;2023-01-26T00:33:28;101293.19;;;5.81;56.81
34124;BME280;13153;52.316;21.166;2023-01-26T00:35:54;101298.97;;;5.75;57.03
34124;BME280;13153;52.316;21.166;2023-01-26T00:38:20;101295.19;;;5.70;57.49
34124;BME280;13153;52.316;21.166;2023-01-26T00:40:46;101297.97;;;5.73;57.48
34124;BME280;13153;52.316;21.166;2023-01-26T00:43:12;101289.16;;;5.71;57.41
34124;BME280;13153;52.316;21.166;2023-01-26T00:45:37;101285.56;;;5.69;57.22
34124;BME280;13153;52.316;21.166;2023-01-26T00:48:03;101282.31;;;5.73;57.73
34124;BME280;13153;52.316;21.166;2023-01-26T00:50:29;101282.31;;;5.73;57.39
34124;BME280;13153;52.316;21.166;2023-01-26T00:52:56;101284.31;;;5.77;57.51
34124;BME280;13153;52.316;21.166;2023-01-26T00:55:21;101278.19;;;5.77;57.13
34124;BME280;13153;52.316;21.166;2023-01-26T00:57:49;101271.59;;;5.69;57.54
34124;BME280;13153;52.316;21.166;2023-01-26T01:00:16;101269.59;;;5.64;57.52
34124;BME280;13153;52.316;21.166;2023-01-26T01:02:43;101281.84;;;5.66;57.50
34124;BME280;13153;52.316;21.166;2023-01-26T01:05:09;101283.56;;;5.65;57.50
34124;BME280;13153;52.316;21.166;2023-01-26T01:07:35;101282.13;;;5.70;57.86
34124;BME280;13153;52.316;21.166;2023-01-26T01:10:01;101280.69;;;5.75;57.87
34124;BME280;13153;52.316;21.166;2023-01-26T01:12:27;101272.78;;;5.74;57.47
34124;BME280;13153;52.316;21.166;2023-01-26T01:14:53;101273.50;;;5.71;57.80
34124;BME280;13153;52.316;21.166;2023-01-26T01:17:18;101269.69;;;5.66;57.67
34124;BME280;13153;52.316;21.166;2023-01-26T01:19:44;101268.69;;;5.64;57.92
34124;BME280;13153;52.316;21.166;2023-01-26T01:22:10;101257.19;;;5.60;58.07
34124;BME280;13153;52.316;21.166;2023-01-26T01:24:36;101252.66;;;5.58;57.99
34124;BME280;13153;52.316;21.166;2023-01-26T01:27:02;101260.50;;;5.58;58.16
34124;BME280;13153;52.316;21.166;2023-01-26T01:29:28;101254.47;;;5.59;58.11
34124;BME280;13153;52.316;21.166;2023-01-26T01:31:54;101246.91;;;5.63;58.19
34124;BME280;13153;52.316;21.166;2023-01-26T01:34:19;101246.13;;;5.64;58.20
34124;BME280;13153;52.316;21.166;2023-01-26T01:36:45;101231.97;;;5.61;58.36
34124;BME280;13153;52.316;21.166;2023-01-26T01:39:11;101227.19;;;5.54;58.17
34124;BME280;13153;52.316;21.166;2023-01-26T01:41:37;101221.78;;;5.51;58.18
34124;BME280;13153;52.316;21.166;2023-01-26T01:44:24;101216.47;;;5.49;58.42
34124;BME280;13153;52.316;21.166;2023-01-26T01:46:59;101220.06;;;5.51;58.52
34124;BME280;13153;52.316;21.166;2023-01-26T01:49:40;101212.44;;;5.54;58.74
34124;BME280;13153;52.316;21.166;2023-01-26T01:52:15;101219.44;;;5.55;58.33
34124;BME280;13153;52.316;21.166;2023-01-26T01:54:50;101201.09;;;5.54;58.37
34124;BME280;13153;52.316;21.166;2023-01-26T01:57:31;101203.78;;;5.55;58.71
34124;BME280;13153;52.316;21.166;2023-01-26T02:00:13;101203.78;;;5.55;58.46
34124;BME280;13153;52.316;21.166;2023-01-26T02:02:43;101193.16;;;5.52;58.34
34124;BME280;13153;52.316;21.166;2023-01-26T02:05:26;101196.69;;;5.53;58.90
34124;BME280;13153;52.316;21.166;2023-01-26T02:07:55;101196.59;;;5.51;58.54
34124;BME280;13153;52.316;21.166;2023-01-26T02:10:23;101196.59;;;5.51;58.59
34124;BME280;13153;52.316;21.166;2023-01-26T02:12:54;101207.13;;;5.53;58.93
34124;BME280;13153;52.316;21.166;2023-01-26T02:15:22;101196.78;;;5.54;58.78
34124;BME280;13153;52.316;21.166;2023-01-26T02:17:51;101196.06;;;5.57;59.00
34124;BME280;13153;52.316;21.166;2023-01-26T02:20:44;101187.13;;;5.53;58.75
34124;BME280;13153;52.316;21.166;2023-01-26T02:26:23;101184.25;;;5.49;58.56
34124;BME280;13153;52.316;21.166;2023-01-26T02:28:51;101182.63;;;5.51;58.86
34124;BME280;13153;52.316;21.166;2023-01-26T02:31:18;101173.91;;;5.50;59.15
34124;BME280;13153;52.316;21.166;2023-01-26T02:33:44;101173.19;;;5.53;59.13
34124;BME280;13153;52.316;21.166;2023-01-26T02:36:27;101174.91;;;5.52;58.86
34124;BME280;13153;52.316;21.166;2023-01-26T02:41:46;101172.38;;;5.54;58.99
34124;BME280;13153;52.316;21.166;2023-01-26T02:44:31;101179.41;;;5.55;59.26
34124;BME280;13153;52.316;21.166;2023-01-26T02:46:57;101172.28;;;5.52;59.08
34124;BME280;13153;52.316;21.166;2023-01-26T02:49:23;101166.97;;;5.51;59.33
34124;BME280;13153;52.316;21.166;2023-01-26T02:52:07;101154.75;;;5.50;59.05
34124;BME280;13153;52.316;21.166;2023-01-26T02:54:33;101157.53;;;5.53;59.26
34124;BME280;13153;52.316;21.166;2023-01-26T02:57:17;101153.28;;;5.55;59.34
34124;BME280;13153;52.316;21.166;2023-01-26T02:59:43;101142.03;;;5.56;59.23
34124;BME280;13153;52.316;21.166;2023-01-26T03:02:10;101145.66;;;5.58;58.94
34124;BME280;13153;52.316;21.166;2023-01-26T03:04:36;101148.97;;;5.55;59.06
34124;BME280;13153;52.316;21.166;2023-01-26T03:07:02;101141.97;;;5.54;59.18
34124;BME280;13153;52.316;21.166;2023-01-26T03:09:28;101132.41;;;5.55;59.36
34124;BME280;13153;52.316;21.166;2023-01-26T03:11:54;101132.41;;;5.55;59.23
34124;BME280;13153;52.316;21.166;2023-01-26T03:14:19;101132.41;;;5.55;59.12
34124;BME280;13153;52.316;21.166;2023-01-26T03:16:45;101130.78;;;5.57;59.28
34124;BME280;13153;52.316;21.166;2023-01-26T03:19:15;101134.31;;;5.57;59.26
34124;BME280;13153;52.316;21.166;2023-01-26T03:21:59;101125.66;;;5.58;59.39
34124;BME280;13153;52.316;21.166;2023-01-26T03:24:44;101123.94;;;5.59;59.29
34124;BME280;13153;52.316;21.166;2023-01-26T03:27:55;101117.84;;;5.58;59.17
34124;BME280;13153;52.316;21.166;2023-01-26T03:30:21;101107.56;;;5.61;59.31
34124;BME280;13153;52.316;21.166;2023-01-26T03:32:47;101109.28;;;5.61;59.13
34124;BME280;13153;52.316;21.166;2023-01-26T03:35:13;101106.75;;;5.62;59.62
34124;BME280;13153;52.316;21.166;2023-01-26T03:37:47;101092.72;;;5.60;59.37
34124;BME280;13153;52.316;21.166;2023-01-26T03:40:19;101101.63;;;5.64;59.41
34124;BME280;13153;52.316;21.166;2023-01-26T03:43:09;101107.75;;;5.64;59.51
34124;BME280;13153;52.316;21.166;2023-01-26T03:45:53;101105.13;;;5.64;59.74
34124;BME280;13153;52.316;21.166;2023-01-26T03:48:38;101112.88;;;5.63;59.57
34124;BME280;13153;52.316;21.166;2023-01-26T03:51:22;101103.44;;;5.65;59.31
34124;BME280;13153;52.316;21.166;2023-01-26T03:54:06;101099.00;;;5.64;59.22
34124;BME280;13153;52.316;21.166;2023-01-26T03:56:50;101096.13;;;5.59;59.64
34124;BME280;13153;52.316;21.166;2023-01-26T03:59:16;101096.88;;;5.57;59.22
34124;BME280;13153;52.316;21.166;2023-01-26T04:01:46;101084.81;;;5.59;59.58
34124;BME280;13153;52.316;21.166;2023-01-26T04:04:31;101086.59;;;5.60;59.53
34124;BME280;13153;52.316;21.166;2023-01-26T04:07:15;101085.69;;;5.59;59.62
34124;BME280;13153;52.316;21.166;2023-01-26T04:10:00;101083.19;;;5.61;59.55
34124;BME280;13153;52.316;21.166;2023-01-26T04:12:26;101082.38;;;5.62;59.56
34124;BME280;13153;52.316;21.166;2023-01-26T04:14:51;101078.78;;;5.60;59.60
34124;BME280;13153;52.316;21.166;2023-01-26T04:17:35;101079.75;;;5.62;59.71
34124;BME280;13153;52.316;21.166;2023-01-26T04:20:19;101071.75;;;5.59;59.26
34124;BME280;13153;52.316;21.166;2023-01-26T04:23:03;101082.44;;;5.63;59.86
34124;BME280;13153;52.316;21.166;2023-01-26T04:25:29;101077.31;;;5.65;59.33
34124;BME280;13153;52.316;21.166;2023-01-26T04:27:55;101080.91;;;5.67;59.51
34124;BME280;13153;52.316;21.166;2023-01-26T04:30:21;101077.94;;;5.61;59.54
34124;BME280;13153;52.316;21.166;2023-01-26T04:32:46;101080.56;;;5.61;59.58
34124;BME280;13153;52.316;21.166;2023-01-26T04:35:12;101088.47;;;5.62;59.48
34124;BME280;13153;52.316;21.166;2023-01-26T04:37:38;101083.34;;;5.64;59.54
34124;BME280;13153;52.316;21.166;2023-01-26T04:40:05;101088.66;;;5.66;59.73
34124;BME280;13153;52.316;21.166;2023-01-26T04:42:31;101085.16;;;5.65;59.45
34124;BME280;13153;52.316;21.166;2023-01-26T04:44:57;101084.16;;;5.63;59.56
34124;BME280;13153;52.316;21.166;2023-01-26T04:47:23;101086.94;;;5.66;59.97
34124;BME280;13153;52.316;21.166;2023-01-26T04:49:49;101088.03;;;5.70;59.49
34124;BME280;13153;52.316;21.166;2023-01-26T04:52:15;101078.31;;;5.67;59.60
34124;BME280;13153;52.316;21.166;2023-01-26T04:54:41;101081.47;;;5.61;59.72
34124;BME280;13153;52.316;21.166;2023-01-26T04:57:07;101083.19;;;5.61;59.84
34124;BME280;13153;52.316;21.166;2023-01-26T04:59:33;101072.72;;;5.61;59.70
34124;BME280;13153;52.316;21.166;2023-01-26T05:01:59;101076.41;;;5.64;60.04
34124;BME280;13153;52.316;21.166;2023-01-26T05:04:25;101080.81;;;5.66;59.98
34124;BME280;13153;52.316;21.166;2023-01-26T05:06:51;101072.28;;;5.68;60.01
34124;BME280;13153;52.316;21.166;2023-01-26T05:09:16;101077.75;;;5.73;60.17
34124;BME280;13153;52.316;21.166;2023-01-26T05:11:42;101081.28;;;5.73;59.59
34124;BME280;13153;52.316;21.166;2023-01-26T05:14:08;101070.66;;;5.70;59.45
34124;BME280;13153;52.316;21.166;2023-01-26T05:16:34;101063.38;;;5.64;59.75
34124;BME280;13153;52.316;21.166;2023-01-26T05:19:00;101063.28;;;5.63;59.55
34124;BME280;13153;52.316;21.166;2023-01-26T05:21:25;101061.66;;;5.65;59.84
34124;BME280;13153;52.316;21.166;2023-01-26T05:23:53;101070.47;;;5.67;60.09
34124;BME280;13153;52.316;21.166;2023-01-26T05:26:19;101062.09;;;5.73;59.86
34124;BME280;13153;52.316;21.166;2023-01-26T05:28:45;101063.91;;;5.74;59.51
34124;BME280;13153;52.316;21.166;2023-01-26T05:31:11;101068.03;;;5.70;59.65
34124;BME280;13153;52.316;21.166;2023-01-26T05:33:37;101069.84;;;5.71;60.06
34124;BME280;13153;52.316;21.166;2023-01-26T05:36:05;101069.03;;;5.72;59.65
34124;BME280;13153;52.316;21.166;2023-01-26T05:38:32;101069.84;;;5.71;59.75
34124;BME280;13153;52.316;21.166;2023-01-26T05:40:58;101055.78;;;5.69;59.97
34124;BME280;13153;52.316;21.166;2023-01-26T05:43:24;101058.31;;;5.68;59.72
34124;BME280;13153;52.316;21.166;2023-01-26T05:45:50;101060.75;;;5.64;59.71
34124;BME280;13153;52.316;21.166;2023-01-26T05:48:16;101066.06;;;5.66;59.97
34124;BME280;13153;52.316;21.166;2023-01-26T05:50:42;101063.19;;;5.61;59.89
34124;BME280;13153;52.316;21.166;2023-01-26T05:53:08;101055.53;;;5.64;59.93
34124;BME280;13153;52.316;21.166;2023-01-26T05:55:34;101067.97;;;5.54;60.12
34124;BME280;13153;52.316;21.166;2023-01-26T05:58:00;101062.84;;;5.55;59.81
34124;BME280;13153;52.316;21.166;2023-01-26T06:00:26;101063.91;;;5.59;60.38
34124;BME280;13153;52.316;21.166;2023-01-26T06:02:52;101062.28;;;5.61;60.00
34124;BME280;13153;52.316;21.166;2023-01-26T06:05:17;101060.50;;;5.60;60.14
34124;BME280;13153;52.316;21.166;2023-01-26T06:07:43;101060.59;;;5.61;59.98
34124;BME280;13153;52.316;21.166;2023-01-26T06:10:10;101065.06;;;5.64;59.96
34124;BME280;13153;52.316;21.166;2023-01-26T06:12:35;101060.66;;;5.63;59.94
34124;BME280;13153;52.316;21.166;2023-01-26T06:15:04;101065.88;;;5.63;59.92
34124;BME280;13153;52.316;21.166;2023-01-26T06:17:31;101062.47;;;5.64;60.11
34124;BME280;13153;52.316;21.166;2023-01-26T06:19:57;101057.06;;;5.61;60.05
34124;BME280;13153;52.316;21.166;2023-01-26T06:22:23;101063.19;;;5.61;60.24
34124;BME280;13153;52.316;21.166;2023-01-26T06:24:49;101075.53;;;5.64;60.22
34124;BME280;13153;52.316;21.166;2023-01-26T06:27:16;101071.75;;;5.59;60.41
34124;BME280;13153;52.316;21.166;2023-01-26T06:29:44;101075.06;;;5.56;60.18
34124;BME280;13153;52.316;21.166;2023-01-26T06:32:12;101072.84;;;5.48;60.35
34124;BME280;13153;52.316;21.166;2023-01-26T06:34:38;101069.59;;;5.52;60.65
34124;BME280;13153;52.316;21.166;2023-01-26T06:37:04;101076.88;;;5.57;60.19
34124;BME280;13153;52.316;21.166;2023-01-26T06:39:30;101062.84;;;5.55;60.07
34124;BME280;13153;52.316;21.166;2023-01-26T06:41:56;101053.28;;;5.56;60.32
34124;BME280;13153;52.316;21.166;2023-01-26T06:44:22;101064.00;;;5.60;60.36
34124;BME280;13153;52.316;21.166;2023-01-26T06:46:47;101058.97;;;5.63;60.51
34124;BME280;13153;52.316;21.166;2023-01-26T06:49:13;101057.41;;;5.67;60.19
34124;BME280;13153;52.316;21.166;2023-01-26T06:54:58;101060.84;;;5.66;59.97
34124;BME280;13153;52.316;21.166;2023-01-26T06:57:25;101061.47;;;5.62;60.19
34124;BME280;13153;52.316;21.166;2023-01-26T06:59:51;101051.13;;;5.63;60.19
34124;BME280;13153;52.316;21.166;2023-01-26T07:02:21;101052.56;;;5.58;60.45
34124;BME280;13153;52.316;21.166;2023-01-26T07:04:49;101050.88;;;5.59;60.25
34124;BME280;13153;52.316;21.166;2023-01-26T07:07:15;101050.06;;;5.60;60.34
34124;BME280;13153;52.316;21.166;2023-01-26T07:09:40;101042.94;;;5.57;60.17
34124;BME280;13153;52.316;21.166;2023-01-26T07:12:07;101054.28;;;5.58;60.74
34124;BME280;13153;52.316;21.166;2023-01-26T07:14:33;101041.59;;;5.49;60.57
34124;BME280;13153;52.316;21.166;2023-01-26T07:17:00;101037.72;;;5.57;60.63
34124;BME280;13153;52.316;21.166;2023-01-26T07:19:27;101043.84;;;5.58;60.50
34124;BME280;13153;52.316;21.166;2023-01-26T07:21:54;101041.66;;;5.66;60.36
34124;BME280;13153;52.316;21.166;2023-01-26T07:24:20;101047.06;;;5.69;60.15
34124;BME280;13153;52.316;21.166;2023-01-26T07:26:46;101045.91;;;5.63;60.24
34124;BME280;13153;52.316;21.166;2023-01-26T07:29:12;101044.63;;;5.72;60.33
34124;BME280;13153;52.316;21.166;2023-01-26T07:31:37;101032.66;;;5.75;60.07
34124;BME280;13153;52.316;21.166;2023-01-26T07:34:03;101032.66;;;5.75;59.81
34124;BME280;13153;52.316;21.166;2023-01-26T07:36:29;101035.56;;;5.81;60.02
34124;BME280;13153;52.316;21.166;2023-01-26T07:38:55;101041.28;;;5.74;59.74
34124;BME280;13153;52.316;21.166;2023-01-26T07:41:21;101040.69;;;5.80;59.61
34124;BME280;13153;52.316;21.166;2023-01-26T07:43:47;101039.16;;;5.83;59.29
34124;BME280;13153;52.316;21.166;2023-01-26T07:46:14;101028.81;;;5.85;59.30
34124;BME280;13153;52.316;21.166;2023-01-26T07:48:40;101030.97;;;5.92;59.13
34124;BME280;13153;52.316;21.166;2023-01-26T07:51:06;101025.09;;;5.96;58.58
34124;BME280;13153;52.316;21.166;2023-01-26T07:53:34;101038.81;;;5.92;58.56
34124;BME280;13153;52.316;21.166;2023-01-26T07:56:15;101037.34;;;5.97;58.71
34124;BME280;13153;52.316;21.166;2023-01-26T07:58:41;101035.47;;;5.94;58.29
34124;BME280;13153;52.316;21.166;2023-01-26T08:01:13;101033.03;;;5.97;58.30
34124;BME280;13153;52.316;21.166;2023-01-26T08:03:40;101028.78;;;6.00;58.55
34124;BME280;13153;52.316;21.166;2023-01-26T08:06:07;101025.53;;;6.04;58.02
34124;BME280;13153;52.316;21.166;2023-01-26T08:08:34;101026.44;;;6.04;57.61
34124;BME280;13153;52.316;21.166;2023-01-26T08:11:01;101026.69;;;6.09;57.38
34124;BME280;13153;52.316;21.166;2023-01-26T08:13:28;101027.59;;;6.09;56.78
34124;BME280;13153;52.316;21.166;2023-01-26T08:16:04;101019.09;;;6.13;56.25
34124;BME280;13153;52.316;21.166;2023-01-26T08:18:30;101022.53;;;6.12;56.02
34124;BME280;13153;52.316;21.166;2023-01-26T08:20:57;101025.38;;;6.17;56.04
34124;BME280;13153;52.316;21.166;2023-01-26T08:23:23;101024.75;;;6.21;56.03
34124;BME280;13153;52.316;21.166;2023-01-26T08:25:49;101015.34;;;6.24;56.52
34124;BME280;13153;52.316;21.166;2023-01-26T08:28:14;101018.81;;;5.92;55.36
34124;BME280;13153;52.316;21.166;2023-01-26T08:30:41;101015.81;;;6.01;55.41
34124;BME280;13153;52.316;21.166;2023-01-26T08:33:07;101012.31;;;6.01;54.54
34124;BME280;13153;52.316;21.166;2023-01-26T08:35:34;101018.94;;;6.10;54.63
34124;BME280;13153;52.316;21.166;2023-01-26T08:38:00;101026.38;;;6.19;54.73
34124;BME280;13153;52.316;21.166;2023-01-26T08:40:26;101021.78;;;6.15;54.13
34124;BME280;13153;52.316;21.166;2023-01-26T08:42:52;101019.75;;;6.25;54.03
34124;BME280;13153;52.316;21.166;2023-01-26T08:45:19;101023.28;;;6.26;53.70
34124;BME280;13153;52.316;21.166;2023-01-26T08:47:48;101016.66;;;6.33;53.47
34124;BME280;13153;52.316;21.166;2023-01-26T08:50:16;101026.38;;;6.35;53.24
34124;BME280;13153;52.316;21.166;2023-01-26T08:52:41;101029.00;;;6.35;53.31
34124;BME280;13153;52.316;21.166;2023-01-26T08:55:08;101031.75;;;6.38;53.09
34124;BME280;13153;52.316;21.166;2023-01-26T08:57:34;101038.69;;;6.38;53.01
34124;BME280;13153;52.316;21.166;2023-01-26T08:59:59;101034.59;;;6.43;52.87
34124;BME280;13153;52.316;21.166;2023-01-26T09:02:25;101036.66;;;6.48;52.74
34124;BME280;13153;52.316;21.166;2023-01-26T09:04:51;101039.25;;;6.48;53.03
34124;BME280;13153;52.316;21.166;2023-01-26T09:07:16;101041.22;;;6.52;52.58
34124;BME280;13153;52.316;21.166;2023-01-26T09:09:42;101042.53;;;6.44;52.83
34124;BME280;13153;52.316;21.166;2023-01-26T09:12:09;101048.41;;;6.40;52.71
34124;BME280;13153;52.316;21.166;2023-01-26T09:14:35;101049.72;;;6.48;52.38
34124;BME280;13153;52.316;21.166;2023-01-26T09:17:01;101046.44;;;6.52;52.37
34124;BME280;13153;52.316;21.166;2023-01-26T09:19:26;101050.84;;;6.53;52.41
34124;BME280;13153;52.316;21.166;2023-01-26T09:21:53;101051.84;;;6.55;52.50
34124;BME280;13153;52.316;21.166;2023-01-26T09:24:21;101046.44;;;6.36;52.46
34124;BME280;13153;52.316;21.166;2023-01-26T09:26:47;101050.38;;;6.44;52.39
34124;BME280;13153;52.316;21.166;2023-01-26T09:29:12;101052.97;;;6.44;51.90
34124;BME280;13153;52.316;21.166;2023-01-26T09:31:38;101048.72;;;6.46;51.73
34124;BME280;13153;52.316;21.166;2023-01-26T09:34:05;101042.94;;;6.52;52.01
34124;BME280;13153;52.316;21.166;2023-01-26T09:36:32;101039.38;;;6.34;51.93
34124;BME280;13153;52.316;21.166;2023-01-26T09:38:59;101042.56;;;6.28;52.18
34124;BME280;13153;52.316;21.166;2023-01-26T09:42:04;101038.56;;;6.35;52.21
34124;BME280;13153;52.316;21.166;2023-01-26T09:44:49;101028.63;;;6.45;52.19
34124;BME280;13153;52.316;21.166;2023-01-26T09:47:24;101026.75;;;6.43;52.24
34124;BME280;13153;52.316;21.166;2023-01-26T09:50:30;101020.97;;;6.48;52.44
34124;BME280;13153;52.316;21.166;2023-01-26T09:53:06;101027.56;;;6.42;52.34
34124;BME280;13153;52.316;21.166;2023-01-26T09:55:40;101019.97;;;6.46;52.22
34124;BME280;13153;52.316;21.166;2023-01-26T10:00:53;101015.56;;;6.45;52.04
34124;BME280;13153;52.316;21.166;2023-01-26T10:03:43;101018.75;;;6.40;52.17
34124;BME280;13153;52.316;21.166;2023-01-26T10:06:24;101014.00;;;6.49;52.63
34124;BME280;13153;52.316;21.166;2023-01-26T10:08:57;101012.63;;;6.55;52.96
34124;BME280;13153;52.316;21.166;2023-01-26T10:11:36;101013.75;;;6.60;52.09
34124;BME280;13153;52.316;21.166;2023-01-26T10:14:38;101004.69;;;6.54;52.60
34124;BME280;13153;52.316;21.166;2023-01-26T10:17:18;100999.56;;;6.55;52.00
34124;BME280;13153;52.316;21.166;2023-01-26T10:19:58;100997.03;;;6.57;52.37
34124;BME280;13153;52.316;21.166;2023-01-26T10:22:50;100993.59;;;6.42;52.74
34124;BME280;13153;52.316;21.166;2023-01-26T10:25:49;100990.56;;;6.50;52.13
34124;BME280;13153;52.316;21.166;2023-01-26T10:30:47;100983.53;;;6.49;52.85
34124;BME280;13153;52.316;21.166;2023-01-26T10:33:28;100975.22;;;6.56;52.97
34124;BME280;13153;52.316;21.166;2023-01-26T10:35:55;100977.00;;;6.57;52.44
34124;BME280;13153;52.316;21.166;2023-01-26T10:41:05;100968.41;;;6.60;52.82
34124;BME280;13153;52.316;21.166;2023-01-26T10:43:38;100965.31;;;6.51;52.80
34124;BME280;13153;52.316;21.166;2023-01-26T10:46:05;100965.88;;;6.61;52.37
34124;BME280;13153;52.316;21.166;2023-01-26T10:48:31;100961.16;;;6.54;52.45
34124;BME280;13153;52.316;21.166;2023-01-26T10:51:27;100964.28;;;6.47;52.05
34124;BME280;13153;52.316;21.166;2023-01-26T10:54:24;100959.13;;;6.49;52.28
34124;BME280;13153;52.316;21.166;2023-01-26T10:57:38;100958.53;;;6.54;52.41
34124;BME280;13153;52.316;21.166;2023-01-26T10:59:52;100944.72;;;6.57;52.17
34124;BME280;13153;52.316;21.166;2023-01-26T11:02:29;100936.31;;;6.62;52.23
34124;BME280;13153;52.316;21.166;2023-01-26T11:07:47;100940.44;;;6.75;51.95
34124;BME280;13153;52.316;21.166;2023-01-26T11:13:16;100935.13;;;6.74;51.91
34124;BME280;13153;52.316;21.166;2023-01-26T11:15:47;100932.13;;;6.66;51.58
34124;BME280;13153;52.316;21.166;2023-01-26T11:21:39;100924.09;;;6.45;51.58
34124;BME280;13153;52.316;21.166;2023-01-26T11:24:32;100923.31;;;6.30;52.59
34124;BME280;13153;52.316;21.166;2023-01-26T11:42:10;100905.59;;;6.58;51.71
34124;BME280;13153;52.316;21.166;2023-01-26T11:45:25;100907.22;;;6.56;51.56
34124;BME280;13153;52.316;21.166;2023-01-26T11:50:58;100895.50;;;6.48;51.22
34124;BME280;13153;52.316;21.166;2023-01-26T11:56:38;100892.28;;;6.54;51.22
34124;BME280;13153;52.316;21.166;2023-01-26T11:59:21;100884.06;;;6.46;51.58
34124;BME280;13153;52.316;21.166;2023-01-26T12:04:52;100891.81;;;6.27;52.05
34124;BME280;13153;52.316;21.166;2023-01-26T12:10:19;100879.13;;;6.35;52.00
34124;BME280;13153;52.316;21.166;2023-01-26T12:12:54;100884.53;;;6.21;52.38
34124;BME280;13153;52.316;21.166;2023-01-26T12:15:31;100885.69;;;6.26;51.82
34124;BME280;13153;52.316;21.166;2023-01-26T12:18:09;100885.38;;;6.20;51.79
34124;BME280;13153;52.316;21.166;2023-01-26T12:20:45;100878.91;;;6.14;52.18
34124;BME280;13153;52.316;21.166;2023-01-26T12:25:54;100882.81;;;6.22;52.16
34124;BME280;13153;52.316;21.166;2023-01-26T12:28:33;100882.50;;;6.32;52.11
34124;BME280;13153;52.316;21.166;2023-01-26T12:31:16;100877.47;;;6.37;51.93
34124;BME280;13153;52.316;21.166;2023-01-26T12:33:43;100873.06;;;6.36;51.54
34124;BME280;13153;52.316;21.166;2023-01-26T12:36:25;100875.66;;;6.36;51.93
34124;BME280;13153;52.316;21.166;2023-01-26T12:39:02;100874.09;;;6.39;51.70
34124;BME280;13153;52.316;21.166;2023-01-26T12:42:26;100872.78;;;6.47;52.11
34124;BME280;13153;52.316;21.166;2023-01-26T12:44:59;100870.69;;;6.40;51.87
34124;BME280;13153;52.316;21.166;2023-01-26T12:47:45;100875.25;;;6.44;52.00
34124;BME280;13153;52.316;21.166;2023-01-26T12:50:40;100875.25;;;6.44;51.95
34124;BME280;13153;52.316;21.166;2023-01-26T12:53:55;100879.56;;;6.44;52.27
34124;BME280;13153;52.316;21.166;2023-01-26T12:59:00;100872.31;;;6.38;51.81
34124;BME280;13153;52.316;21.166;2023-01-26T13:01:40;100881.06;;;6.39;51.95
34124;BME280;13153;52.316;21.166;2023-01-26T13:04:14;100877.47;;;6.37;51.41
34124;BME280;13153;52.316;21.166;2023-01-26T13:06:41;100870.53;;;6.37;51.99
34124;BME280;13153;52.316;21.166;2023-01-26T13:09:24;100860.97;;;6.38;52.18
34124;BME280;13153;52.316;21.166;2023-01-26T13:11:53;100863.44;;;6.35;51.91
34124;BME280;13153;52.316;21.166;2023-01-26T13:27:53;100856.47;;;6.17;52.46
34124;BME280;13153;52.316;21.166;2023-01-26T13:35:16;100863.13;;;6.28;52.61
34124;BME280;13153;52.316;21.166;2023-01-26T13:40:35;100858.81;;;6.29;52.68
34124;BME280;13153;52.316;21.166;2023-01-26T13:46:31;100851.22;;;6.34;51.97
34124;BME280;13153;52.316;21.166;2023-01-26T13:48:59;100852.84;;;6.32;52.25
34124;BME280;13153;52.316;21.166;2023-01-26T13:51:30;100852.06;;;6.16;52.57
34124;BME280;13153;52.316;21.166;2023-01-26T13:54:05;100851.47;;;6.22;52.90
34124;BME280;13153;52.316;21.166;2023-01-26T13:56:40;100849.69;;;6.21;52.65
34124;BME280;13153;52.316;21.166;2023-01-26T13:59:12;100852.44;;;6.24;52.87
34124;BME280;13153;52.316;21.166;2023-01-26T14:01:51;100854.41;;;6.28;52.99
34124;BME280;13153;52.316;21.166;2023-01-26T14:04:29;100844.94;;;6.30;52.63
34124;BME280;13153;52.316;21.166;2023-01-26T14:07:11;100847.69;;;6.33;52.54
34124;BME280;13153;52.316;21.166;2023-01-26T14:09:50;100851.22;;;6.34;52.73
34124;BME280;13153;52.316;21.166;2023-01-26T14:12:24;100844.94;;;6.30;52.46
34124;BME280;13153;52.316;21.166;2023-01-26T14:14:55;100843.13;;;6.29;52.43
34124;BME280;13153;52.316;21.166;2023-01-26T14:17:33;100847.97;;;6.21;52.42
34124;BME280;13153;52.316;21.166;2023-01-26T14:20:17;100850.56;;;6.21;52.62
34124;BME280;13153;52.316;21.166;2023-01-26T14:22:43;100841.03;;;6.22;52.62
34124;BME280;13153;52.316;21.166;2023-01-26T14:25:09;100838.56;;;6.25;52.91
34124;BME280;13153;52.316;21.166;2023-01-26T14:27:40;100849.19;;;6.28;52.68
34124;BME280;13153;52.316;21.166;2023-01-26T14:30:31;100845.34;;;6.21;52.80
34124;BME280;13153;52.316;21.166;2023-01-26T14:33:13;100838.34;;;6.20;52.90
34124;BME280;13153;52.316;21.166;2023-01-26T14:35:42;100840.88;;;6.19;52.83